Ossian — WDF2623 — position and weather

sailwx.info

Track history (hours):
 
Tides and Currents Weather Stations Pressure Air Temp Water Temp Dewpoint Dewpoint Depression Visibility Wind Speed Wind Dir Waves Ship Positions

Ossian

Owner: Hartzell, Scott R, Florence, OR. More information available from US FCC via Universal Licensing System and Coast Guard Vessel Documentation Center.

Last reported at 2016-Jul-19 17:33 UTC. Time now 2016-Jul-25 04:19 UTC.
Position N 45°24' W 124°26'.

Length 26 m.

Type: Fishing. MMSI: 366773410.

Date/timePositionNaut miles runAvg speedWind from/ knotsBaromVisibWave heightAir tempDewpointWater temp
2016-Jul-19 17:33N 45°24' W 124°26'2 1.5
2016-Jul-19 16:23N 45°26' W 124°27'1 1.2
2016-Jul-19 15:29N 45°27' W 124°28'2 1.9
2016-Jul-19 14:33N 45°28' W 124°29'1 0.8
2016-Jul-19 13:33N 45°28' W 124°28'4 3.9
2016-Jul-19 12:34N 45°32' W 124°28'1 0.6
2016-Jul-19 11:34N 45°31' W 124°28'1 0.6
2016-Jul-19 10:33N 45°31' W 124°29'1 0.8
2016-Jul-19 09:33N 45°30' W 124°29'1 0.7
2016-Jul-19 08:33N 45°29' W 124°30'1 0.7
2016-Jul-19 07:33N 45°29' W 124°30'12 2.9
2016-Jul-19 03:31N 45°39' W 124°39'1 0.6
2016-Jul-19 02:33N 45°39' W 124°38'5 5.1
2016-Jul-19 01:33N 45°35' W 124°33'6 5.7
2016-Jul-19 00:33N 45°30' W 124°29'1 0.9
2016-Jul-18 23:34N 45°29' W 124°29'4 3.6
2016-Jul-18 22:33N 45°26' W 124°27'2 1.8
2016-Jul-18 21:23N 45°27' W 124°28'5 6.6
2016-Jul-18 20:34N 45°32' W 124°31'9 8.8
2016-Jul-18 19:34N 45°40' W 124°39'1 0.6
2016-Jul-18 18:34N 45°40' W 124°39'1 1.5
2016-Jul-18 17:33N 45°39' W 124°38'1 1.0
2016-Jul-18 16:33N 45°38' W 124°37'2 2.4
2016-Jul-18 15:33N 45°36' W 124°35'0 0.5
2016-Jul-18 14:33N 45°36' W 124°35'3 2.7
2016-Jul-18 13:34N 45°38' W 124°38'1 1.1
2016-Jul-18 12:34N 45°39' W 124°38'5 4.7
2016-Jul-18 11:33N 45°35' W 124°34'1 0.7
2016-Jul-18 10:33N 45°36' W 124°34'1 0.8
2016-Jul-18 09:33N 45°37' W 124°35'1 0.8
2016-Jul-18 08:34N 45°37' W 124°35'1 0.7
2016-Jul-18 07:34N 45°38' W 124°36'2 1.9
2016-Jul-18 06:34N 45°37' W 124°34'7 6.8
2016-Jul-18 05:34N 45°30' W 124°30'1 0.7
2016-Jul-18 04:32N 45°31' W 124°30'0 0.3
2016-Jul-18 03:34N 45°31' W 124°30'1 0.9
2016-Jul-18 02:33N 45°31' W 124°29'3 3.5
2016-Jul-18 01:33N 45°34' W 124°31'1 0.6
2016-Jul-18 00:33N 45°34' W 124°32'8 8.0
2016-Jul-17 23:33N 45°40' W 124°39'1 1.1
2016-Jul-17 22:33N 45°39' W 124°38'3 3.1
2016-Jul-17 21:34N 45°37' W 124°35'9 7.9
2016-Jul-17 20:28N 45°29' W 124°40'6 2.9
2016-Jul-17 18:28N 45°23' W 124°41'11 3.6
2016-Jul-17 15:22N 45°12' W 124°39'0 0.5
2016-Jul-17 14:22N 45°13' W 124°39'1 0.8
2016-Jul-17 13:22N 45°12' W 124°39'6 7.0
2016-Jul-17 12:28N 45°17' W 124°34'1 0.6
2016-Jul-17 11:33N 45°18' W 124°35'1 0.7
2016-Jul-17 10:33N 45°19' W 124°35'1 0.9
2016-Jul-17 09:33N 45°19' W 124°34'1 1.1
2016-Jul-17 08:33N 45°20' W 124°34'1 1.0
2016-Jul-17 07:33N 45°22' W 124°34'1 1.1
2016-Jul-17 06:30N 45°23' W 124°34'10 5.4
2016-Jul-17 04:34N 45°33' W 124°31'5 4.8
2016-Jul-17 03:33N 45°31' W 124°37'6 4.4
2016-Jul-17 02:10N 45°28' W 124°44'1 1.0
2016-Jul-17 01:33N 45°27' W 124°44'2 2.1
2016-Jul-17 00:26N 45°25' W 124°42'2 0.9
2016-Jul-16 22:23N 45°24' W 124°40'0 0.6
2016-Jul-16 21:33N 45°23' W 124°40'4 4.0
2016-Jul-16 20:32N 45°19' W 124°40'12 3.8
2016-Jul-16 17:18N 45°14' W 124°24'2 2.8
2016-Jul-16 16:33N 45°13' W 124°21'2 2.0
2016-Jul-16 15:21N 45°16' W 124°22'1 0.6
2016-Jul-16 14:33N 45°15' W 124°22'12 5.9
2016-Jul-16 12:28N 45°21' W 124°38'2 1.7
2016-Jul-16 11:32N 45°21' W 124°40'1 1.1
2016-Jul-16 10:33N 45°22' W 124°40'1 1.1
2016-Jul-16 09:32N 45°23' W 124°41'1 1.2
2016-Jul-16 08:33N 45°25' W 124°42'1 1.1
2016-Jul-16 07:33N 45°26' W 124°42'3 2.6
2016-Jul-16 06:26N 45°28' W 124°44'6 2.9
2016-Jul-16 04:28N 45°23' W 124°40'5 5.7
2016-Jul-16 03:33N 45°23' W 124°32'5 5.4
2016-Jul-16 02:33N 45°23' W 124°25'2 1.8
2016-Jul-16 01:33N 45°21' W 124°24'1 1.3
2016-Jul-16 00:23N 45°20' W 124°24'5 5.7
2016-Jul-15 23:29N 45°15' W 124°21'2 1.8
2016-Jul-15 22:33N 45°13' W 124°21'4 3.1
2016-Jul-15 21:14N 45°17' W 124°22'0 0.3
2016-Jul-15 20:31N 45°17' W 124°22'2 2.2
2016-Jul-15 19:31N 45°15' W 124°21'1 0.8
2016-Jul-15 18:32N 45°15' W 124°22'0 0.3
2016-Jul-15 17:31N 45°14' W 124°21'2 2.4
2016-Jul-15 16:33N 45°12' W 124°21'1 1.2
2016-Jul-15 15:33N 45°11' W 124°21'4 3.3
2016-Jul-15 14:29N 45°14' W 124°21'1 1.1
2016-Jul-15 13:33N 45°15' W 124°22'1 0.9
2016-Jul-15 12:33N 45°16' W 124°22'1 1.1
2016-Jul-15 11:33N 45°17' W 124°22'1 1.2
2016-Jul-15 10:32N 45°19' W 124°23'1 1.3
2016-Jul-15 09:27N 45°20' W 124°23'1 1.4
2016-Jul-15 08:33N 45°21' W 124°24'2 1.7
2016-Jul-15 07:31N 45°23' W 124°25'3 2.9
2016-Jul-15 06:26N 45°20' W 124°24'3 2.8
2016-Jul-15 05:30N 45°17' W 124°22'3 2.9
2016-Jul-15 04:30N 45°15' W 124°21'3 2.9
2016-Jul-15 03:30N 45°12' W 124°21'8 6.6
2016-Jul-15 02:19N 45°04' W 124°20'  
Track history (hours):
 
Tides and Currents Weather Stations Pressure Air Temp Water Temp Dewpoint Dewpoint Depression Visibility Wind Speed Wind Dir Waves Ship Positions

Ossian

Owner: Hartzell, Scott R, Florence, OR. More information available from US FCC via Universal Licensing System and Coast Guard Vessel Documentation Center.

Last reported at 2016-Jul-19 17:33 UTC. Time now 2016-Jul-25 04:19 UTC.
Position N 45°24' W 124°26'.

Length 26 m.

Type: Fishing. MMSI: 366773410.

Date/timePositionNaut miles runAvg speedWind from/ knotsBaromVisibWave heightAir tempDewpointWater temp
2016-Jul-19 17:33N 45°24' W 124°26'2 1.5
2016-Jul-19 16:23N 45°26' W 124°27'1 1.2
2016-Jul-19 15:29N 45°27' W 124°28'2 1.9
2016-Jul-19 14:33N 45°28' W 124°29'1 0.8
2016-Jul-19 13:33N 45°28' W 124°28'4 3.9
2016-Jul-19 12:34N 45°32' W 124°28'1 0.6
2016-Jul-19 11:34N 45°31' W 124°28'1 0.6
2016-Jul-19 10:33N 45°31' W 124°29'1 0.8
2016-Jul-19 09:33N 45°30' W 124°29'1 0.7
2016-Jul-19 08:33N 45°29' W 124°30'1 0.7
2016-Jul-19 07:33N 45°29' W 124°30'12 2.9
2016-Jul-19 03:31N 45°39' W 124°39'1 0.6
2016-Jul-19 02:33N 45°39' W 124°38'5 5.1
2016-Jul-19 01:33N 45°35' W 124°33'6 5.7
2016-Jul-19 00:33N 45°30' W 124°29'1 0.9
2016-Jul-18 23:34N 45°29' W 124°29'4 3.6
2016-Jul-18 22:33N 45°26' W 124°27'2 1.8
2016-Jul-18 21:23N 45°27' W 124°28'5 6.6
2016-Jul-18 20:34N 45°32' W 124°31'9 8.8
2016-Jul-18 19:34N 45°40' W 124°39'1 0.6
2016-Jul-18 18:34N 45°40' W 124°39'1 1.5
2016-Jul-18 17:33N 45°39' W 124°38'1 1.0
2016-Jul-18 16:33N 45°38' W 124°37'2 2.4
2016-Jul-18 15:33N 45°36' W 124°35'0 0.5
2016-Jul-18 14:33N 45°36' W 124°35'3 2.7
2016-Jul-18 13:34N 45°38' W 124°38'1 1.1
2016-Jul-18 12:34N 45°39' W 124°38'5 4.7
2016-Jul-18 11:33N 45°35' W 124°34'1 0.7
2016-Jul-18 10:33N 45°36' W 124°34'1 0.8
2016-Jul-18 09:33N 45°37' W 124°35'1 0.8
2016-Jul-18 08:34N 45°37' W 124°35'1 0.7
2016-Jul-18 07:34N 45°38' W 124°36'2 1.9
2016-Jul-18 06:34N 45°37' W 124°34'7 6.8
2016-Jul-18 05:34N 45°30' W 124°30'1 0.7
2016-Jul-18 04:32N 45°31' W 124°30'0 0.3
2016-Jul-18 03:34N 45°31' W 124°30'1 0.9
2016-Jul-18 02:33N 45°31' W 124°29'3 3.5
2016-Jul-18 01:33N 45°34' W 124°31'1 0.6
2016-Jul-18 00:33N 45°34' W 124°32'8 8.0
2016-Jul-17 23:33N 45°40' W 124°39'1 1.1
2016-Jul-17 22:33N 45°39' W 124°38'3 3.1
2016-Jul-17 21:34N 45°37' W 124°35'9 7.9
2016-Jul-17 20:28N 45°29' W 124°40'6 2.9
2016-Jul-17 18:28N 45°23' W 124°41'11 3.6
2016-Jul-17 15:22N 45°12' W 124°39'0 0.5
2016-Jul-17 14:22N 45°13' W 124°39'1 0.8
2016-Jul-17 13:22N 45°12' W 124°39'6 7.0
2016-Jul-17 12:28N 45°17' W 124°34'1 0.6
2016-Jul-17 11:33N 45°18' W 124°35'1 0.7
2016-Jul-17 10:33N 45°19' W 124°35'1 0.9
2016-Jul-17 09:33N 45°19' W 124°34'1 1.1
2016-Jul-17 08:33N 45°20' W 124°34'1 1.0
2016-Jul-17 07:33N 45°22' W 124°34'1 1.1
2016-Jul-17 06:30N 45°23' W 124°34'10 5.4
2016-Jul-17 04:34N 45°33' W 124°31'5 4.8
2016-Jul-17 03:33N 45°31' W 124°37'6 4.4
2016-Jul-17 02:10N 45°28' W 124°44'1 1.0
2016-Jul-17 01:33N 45°27' W 124°44'2 2.1
2016-Jul-17 00:26N 45°25' W 124°42'2 0.9
2016-Jul-16 22:23N 45°24' W 124°40'0 0.6
2016-Jul-16 21:33N 45°23' W 124°40'4 4.0
2016-Jul-16 20:32N 45°19' W 124°40'12 3.8
2016-Jul-16 17:18N 45°14' W 124°24'2 2.8
2016-Jul-16 16:33N 45°13' W 124°21'2 2.0
2016-Jul-16 15:21N 45°16' W 124°22'1 0.6
2016-Jul-16 14:33N 45°15' W 124°22'12 5.9
2016-Jul-16 12:28N 45°21' W 124°38'2 1.7
2016-Jul-16 11:32N 45°21' W 124°40'1 1.1
2016-Jul-16 10:33N 45°22' W 124°40'1 1.1
2016-Jul-16 09:32N 45°23' W 124°41'1 1.2
2016-Jul-16 08:33N 45°25' W 124°42'1 1.1
2016-Jul-16 07:33N 45°26' W 124°42'3 2.6
2016-Jul-16 06:26N 45°28' W 124°44'6 2.9
2016-Jul-16 04:28N 45°23' W 124°40'5 5.7
2016-Jul-16 03:33N 45°23' W 124°32'5 5.4
2016-Jul-16 02:33N 45°23' W 124°25'2 1.8
2016-Jul-16 01:33N 45°21' W 124°24'1 1.3
2016-Jul-16 00:23N 45°20' W 124°24'5 5.7
2016-Jul-15 23:29N 45°15' W 124°21'2 1.8
2016-Jul-15 22:33N 45°13' W 124°21'4 3.1
2016-Jul-15 21:14N 45°17' W 124°22'0 0.3
2016-Jul-15 20:31N 45°17' W 124°22'2 2.2
2016-Jul-15 19:31N 45°15' W 124°21'1 0.8
2016-Jul-15 18:32N 45°15' W 124°22'0 0.3
2016-Jul-15 17:31N 45°14' W 124°21'2 2.4
2016-Jul-15 16:33N 45°12' W 124°21'1 1.2
2016-Jul-15 15:33N 45°11' W 124°21'4 3.3
2016-Jul-15 14:29N 45°14' W 124°21'1 1.1
2016-Jul-15 13:33N 45°15' W 124°22'1 0.9
2016-Jul-15 12:33N 45°16' W 124°22'1 1.1
2016-Jul-15 11:33N 45°17' W 124°22'1 1.2
2016-Jul-15 10:32N 45°19' W 124°23'1 1.3
2016-Jul-15 09:27N 45°20' W 124°23'1 1.4
2016-Jul-15 08:33N 45°21' W 124°24'2 1.7
2016-Jul-15 07:31N 45°23' W 124°25'3 2.9
2016-Jul-15 06:26N 45°20' W 124°24'3 2.8
2016-Jul-15 05:30N 45°17' W 124°22'3 2.9
2016-Jul-15 04:30N 45°15' W 124°21'3 2.9
2016-Jul-15 03:30N 45°12' W 124°21'8 6.6
2016-Jul-15 02:19N 45°04' W 124°20'  

Dump ship's entire track history